map of MME home
MME - Airport
Location
City:  Teesside, Durham, England, United Kingdom
Near (Alt.):Middleton St. George
Name:Durham Tees Valley Airport
Old (Alt.):Teesside International Airport
ICAO:EGNV
IATA:MME

Details
Type:Airport (Aerodrome, Airfield)
Use:Public/Civil, International (customs port of entry)
Latitude:5430'33"N (54.509167)
Longitude:125'46"W (-1.429443)
Elevation:120 ft (37 m)
Variation:1.31W (WMM2015 magnetic declination)
0.16 annual change
Runways:1
Longest:7516 × 148 ft (2291 × 45 m), paved

Time
Time Zone:UTC+0 (DST+1)
Local Time:

Weather
METAR:EGNV 241420Z 24011KT 9999 FEW025 07/01 Q1008

Related Locations
Nearby:
Farthest:NZBA: 11742 mi / 18897 km
Balclutha, OTA, NZ

Find:

   beyond  
but within

Other Information
Maps:
NOTAMs:
Links:
Sources:

  
flag of United Kingdom
flag of England
  

Airport Diagram

Airport diagram for MME

Airport diagram PDF

Sectional Chart

Flight Planning
at skyvector.com

Satellite Image

Google Maps Satellite view

 

Copyright © 2004-2017 Karl L. Swartz. All rights reserved.
The Great Circle Mapper name and logo are trademarks of the Great Circle Mapper.
All other trademarks mentioned herein belong to their respective owners.
Please see credits for attibutions and further copyright information.

  Follow gcmap on Facebook Follow gcmap on Twitter Follow gcmap on Google+ GCmap on LinkedIn

hCard Microformat

Geo Microformat